sensor_id;sensor_type;location;lat;lon;timestamp;pressure;altitude;pressure_sealevel;temperature;humidity
39051;BME280;24805;55.852;37.644;2023-07-13T00:01:54;98445.50;;;14.59;61.59
39051;BME280;24805;55.852;37.644;2023-07-13T00:06:56;98451.16;;;14.62;61.55
39051;BME280;24805;55.852;37.644;2023-07-13T00:11:59;98449.88;;;14.65;61.86
39051;BME280;24805;55.852;37.644;2023-07-13T00:17:02;98454.41;;;14.64;61.93
39051;BME280;24805;55.852;37.644;2023-07-13T00:22:05;98447.22;;;14.65;62.02
39051;BME280;24805;55.852;37.644;2023-07-13T00:27:11;98446.31;;;14.71;61.94
39051;BME280;24805;55.852;37.644;2023-07-13T00:32:13;98441.53;;;14.61;62.05
39051;BME280;24805;55.852;37.644;2023-07-13T00:37:15;98440.47;;;14.62;62.12
39051;BME280;24805;55.852;37.644;2023-07-13T00:42:17;98440.16;;;14.59;62.51
39051;BME280;24805;55.852;37.644;2023-07-13T00:47:20;98437.81;;;14.62;62.29
39051;BME280;24805;55.852;37.644;2023-07-13T00:52:22;98444.31;;;14.66;62.48
39051;BME280;24805;55.852;37.644;2023-07-13T00:57:25;98437.13;;;14.67;62.07
39051;BME280;24805;55.852;37.644;2023-07-13T01:02:28;98423.56;;;14.68;62.24
39051;BME280;24805;55.852;37.644;2023-07-13T01:07:30;98424.59;;;14.67;62.72
39051;BME280;24805;55.852;37.644;2023-07-13T01:12:33;98432.84;;;14.66;62.49
39051;BME280;24805;55.852;37.644;2023-07-13T01:17:36;98436.53;;;14.65;62.80
39051;BME280;24805;55.852;37.644;2023-07-13T01:22:39;98427.59;;;14.59;62.91
39051;BME280;24805;55.852;37.644;2023-07-13T01:27:42;98417.72;;;14.60;63.01
39051;BME280;24805;55.852;37.644;2023-07-13T01:32:44;98423.06;;;14.60;62.86
39051;BME280;24805;55.852;37.644;2023-07-13T01:37:46;98424.47;;;14.62;62.88
39051;BME280;24805;55.852;37.644;2023-07-13T01:42:49;98398.13;;;14.54;62.90
39051;BME280;24805;55.852;37.644;2023-07-13T01:47:54;98416.47;;;14.62;62.76
39051;BME280;24805;55.852;37.644;2023-07-13T01:52:57;98417.50;;;14.61;63.29
39051;BME280;24805;55.852;37.644;2023-07-13T01:57:59;98406.38;;;14.64;63.14
39051;BME280;24805;55.852;37.644;2023-07-13T02:03:01;98402.31;;;14.73;63.00
39051;BME280;24805;55.852;37.644;2023-07-13T02:08:06;98406.63;;;14.74;62.75
39051;BME280;24805;55.852;37.644;2023-07-13T02:13:08;98399.78;;;14.78;63.01
39051;BME280;24805;55.852;37.644;2023-07-13T02:18:11;98401.97;;;14.81;62.60
39051;BME280;24805;55.852;37.644;2023-07-13T02:23:34;98394.09;;;14.87;62.70
39051;BME280;24805;55.852;37.644;2023-07-13T02:28:36;98379.56;;;14.82;62.53
39051;BME280;24805;55.852;37.644;2023-07-13T02:33:38;98391.31;;;14.93;62.50
39051;BME280;24805;55.852;37.644;2023-07-13T02:38:41;98385.59;;;14.90;62.38
39051;BME280;24805;55.852;37.644;2023-07-13T02:43:43;98394.31;;;14.85;62.94
39051;BME280;24805;55.852;37.644;2023-07-13T02:48:46;98389.19;;;14.83;63.35
39051;BME280;24805;55.852;37.644;2023-07-13T02:53:48;98390.59;;;14.86;63.31
39051;BME280;24805;55.852;37.644;2023-07-13T02:58:51;98387.47;;;14.89;62.90
39051;BME280;24805;55.852;37.644;2023-07-13T03:03:53;98386.78;;;14.94;62.86
39051;BME280;24805;55.852;37.644;2023-07-13T03:08:56;98380.75;;;14.98;62.72
39051;BME280;24805;55.852;37.644;2023-07-13T03:13:59;98362.63;;;14.89;62.68
39051;BME280;24805;55.852;37.644;2023-07-13T03:19:05;98377.00;;;14.99;62.65
39051;BME280;24805;55.852;37.644;2023-07-13T03:24:08;98381.88;;;15.02;62.62
39051;BME280;24805;55.852;37.644;2023-07-13T03:29:10;98385.38;;;15.03;62.74
39051;BME280;24805;55.852;37.644;2023-07-13T03:34:13;98392.91;;;15.06;62.80
39051;BME280;24805;55.852;37.644;2023-07-13T03:39:16;98391.88;;;15.07;62.54
39051;BME280;24805;55.852;37.644;2023-07-13T03:44:22;98389.19;;;15.07;63.06
39051;BME280;24805;55.852;37.644;2023-07-13T03:49:28;98387.81;;;15.16;62.73
39051;BME280;24805;55.852;37.644;2023-07-13T03:54:30;98398.13;;;15.24;62.41
39051;BME280;24805;55.852;37.644;2023-07-13T03:59:34;98385.44;;;15.31;62.37
39051;BME280;24805;55.852;37.644;2023-07-13T04:04:37;98393.78;;;15.46;61.51
39051;BME280;24805;55.852;37.644;2023-07-13T04:09:41;98394.34;;;15.60;61.49
39051;BME280;24805;55.852;37.644;2023-07-13T04:14:45;98404.09;;;15.66;61.11
39051;BME280;24805;55.852;37.644;2023-07-13T04:19:47;98397.94;;;15.66;61.21
39051;BME280;24805;55.852;37.644;2023-07-13T04:24:50;98405.25;;;15.70;61.36
39051;BME280;24805;55.852;37.644;2023-07-13T04:29:52;98399.78;;;15.77;61.36
39051;BME280;24805;55.852;37.644;2023-07-13T04:34:55;98404.09;;;15.78;61.78
39051;BME280;24805;55.852;37.644;2023-07-13T04:39:57;98409.63;;;15.88;61.38
39051;BME280;24805;55.852;37.644;2023-07-13T04:45:00;98401.69;;;15.93;60.48
39051;BME280;24805;55.852;37.644;2023-07-13T04:50:03;98408.84;;;16.04;60.66
39051;BME280;24805;55.852;37.644;2023-07-13T04:55:05;98398.41;;;16.19;60.74
39051;BME280;24805;55.852;37.644;2023-07-13T05:00:08;98394.66;;;16.49;59.82
39051;BME280;24805;55.852;37.644;2023-07-13T05:05:13;98394.44;;;16.67;59.30
39051;BME280;24805;55.852;37.644;2023-07-13T05:10:16;98392.47;;;16.79;58.58
39051;BME280;24805;55.852;37.644;2023-07-13T05:15:22;98402.09;;;17.14;58.21
39051;BME280;24805;55.852;37.644;2023-07-13T05:20:24;98404.00;;;17.35;57.40
39051;BME280;24805;55.852;37.644;2023-07-13T05:25:26;98416.03;;;17.54;57.13
39051;BME280;24805;55.852;37.644;2023-07-13T05:30:28;98400.09;;;17.86;55.97
39051;BME280;24805;55.852;37.644;2023-07-13T05:35:30;98382.06;;;17.82;55.50
39051;BME280;24805;55.852;37.644;2023-07-13T05:40:33;98394.19;;;18.11;54.92
39051;BME280;24805;55.852;37.644;2023-07-13T05:45:35;98401.41;;;18.38;54.55
39051;BME280;24805;55.852;37.644;2023-07-13T05:50:37;98383.84;;;18.57;52.92
39051;BME280;24805;55.852;37.644;2023-07-13T05:55:43;98390.75;;;18.80;53.59
39051;BME280;24805;55.852;37.644;2023-07-13T06:00:47;98390.50;;;18.81;53.03
39051;BME280;24805;55.852;37.644;2023-07-13T06:05:50;98380.75;;;18.70;52.63
39051;BME280;24805;55.852;37.644;2023-07-13T06:10:52;98378.69;;;18.82;52.29
39051;BME280;24805;55.852;37.644;2023-07-13T06:15:54;98374.63;;;18.80;51.93
39051;BME280;24805;55.852;37.644;2023-07-13T06:20:56;98361.44;;;18.73;52.08
39051;BME280;24805;55.852;37.644;2023-07-13T06:25:59;98379.34;;;19.00;51.28
39051;BME280;24805;55.852;37.644;2023-07-13T06:31:01;98368.50;;;19.32;50.93
39051;BME280;24805;55.852;37.644;2023-07-13T06:36:05;98361.16;;;19.79;48.99
39051;BME280;24805;55.852;37.644;2023-07-13T06:41:08;98361.53;;;20.13;46.58
39051;BME280;24805;55.852;37.644;2023-07-13T06:46:11;98358.81;;;20.03;46.53
39051;BME280;24805;55.852;37.644;2023-07-13T06:51:13;98365.47;;;19.80;47.06
39051;BME280;24805;55.852;37.644;2023-07-13T06:56:16;98361.00;;;19.39;47.51
39051;BME280;24805;55.852;37.644;2023-07-13T07:01:18;98368.63;;;19.05;48.81
39051;BME280;24805;55.852;37.644;2023-07-13T07:06:22;98363.19;;;18.95;49.69
39051;BME280;24805;55.852;37.644;2023-07-13T07:11:27;98363.06;;;18.74;50.22
39051;BME280;24805;55.852;37.644;2023-07-13T07:16:29;98364.44;;;18.82;50.22
39051;BME280;24805;55.852;37.644;2023-07-13T07:21:31;98359.09;;;18.87;50.25
39051;BME280;24805;55.852;37.644;2023-07-13T07:26:34;98374.00;;;19.05;50.20
39051;BME280;24805;55.852;37.644;2023-07-13T07:31:56;98391.56;;;19.17;49.88
39051;BME280;24805;55.852;37.644;2023-07-13T07:37:01;98385.63;;;19.20;50.21
39051;BME280;24805;55.852;37.644;2023-07-13T07:42:06;98392.63;;;19.16;49.94
39051;BME280;24805;55.852;37.644;2023-07-13T07:47:08;98389.56;;;18.98;49.86
39051;BME280;24805;55.852;37.644;2023-07-13T07:52:11;98406.59;;;18.76;50.05
39051;BME280;24805;55.852;37.644;2023-07-13T07:57:13;98382.16;;;18.46;51.33
39051;BME280;24805;55.852;37.644;2023-07-13T08:02:18;98390.16;;;18.41;53.15
39051;BME280;24805;55.852;37.644;2023-07-13T08:07:23;98385.47;;;18.26;52.68
39051;BME280;24805;55.852;37.644;2023-07-13T08:12:25;98372.28;;;18.24;52.69
39051;BME280;24805;55.852;37.644;2023-07-13T08:17:31;98382.47;;;18.22;52.56
39051;BME280;24805;55.852;37.644;2023-07-13T08:22:33;98370.41;;;18.25;53.08
39051;BME280;24805;55.852;37.644;2023-07-13T08:27:35;98389.19;;;18.52;52.54
39051;BME280;24805;55.852;37.644;2023-07-13T08:32:38;98379.75;;;18.49;53.61
39051;BME280;24805;55.852;37.644;2023-07-13T08:37:40;98390.69;;;18.43;53.25
39051;BME280;24805;55.852;37.644;2023-07-13T08:42:46;98404.06;;;18.33;53.86
39051;BME280;24805;55.852;37.644;2023-07-13T08:48:10;98391.81;;;18.47;53.16
39051;BME280;24805;55.852;37.644;2023-07-13T08:53:14;98404.22;;;18.53;53.28
39051;BME280;24805;55.852;37.644;2023-07-13T08:58:17;98395.50;;;18.41;53.52
39051;BME280;24805;55.852;37.644;2023-07-13T09:03:26;98406.72;;;18.59;53.30
39051;BME280;24805;55.852;37.644;2023-07-13T09:13:47;98423.53;;;18.50;54.32
39051;BME280;24805;55.852;37.644;2023-07-13T09:18:58;98427.50;;;18.69;54.40
39051;BME280;24805;55.852;37.644;2023-07-13T09:29:33;98427.84;;;18.51;54.65
39051;BME280;24805;55.852;37.644;2023-07-13T09:34:38;98417.91;;;18.24;54.30
39051;BME280;24805;55.852;37.644;2023-07-13T09:39:41;98406.03;;;18.15;55.69
39051;BME280;24805;55.852;37.644;2023-07-13T09:49:57;98399.13;;;18.24;56.65
39051;BME280;24805;55.852;37.644;2023-07-13T09:55:27;98407.31;;;18.40;55.84
39051;BME280;24805;55.852;37.644;2023-07-13T10:00:31;98412.47;;;18.14;57.41
39051;BME280;24805;55.852;37.644;2023-07-13T10:05:45;98409.28;;;18.17;58.25
39051;BME280;24805;55.852;37.644;2023-07-13T10:16:01;98415.91;;;17.44;60.62
39051;BME280;24805;55.852;37.644;2023-07-13T10:21:15;98411.09;;;17.46;61.19
39051;BME280;24805;55.852;37.644;2023-07-13T10:26:29;98395.72;;;17.20;61.29
39051;BME280;24805;55.852;37.644;2023-07-13T10:31:34;98375.97;;;17.04;61.51
39051;BME280;24805;55.852;37.644;2023-07-13T10:36:43;98422.72;;;17.13;61.86
39051;BME280;24805;55.852;37.644;2023-07-13T10:41:50;98390.03;;;16.95;62.50
39051;BME280;24805;55.852;37.644;2023-07-13T10:47:15;98423.47;;;16.92;61.28
39051;BME280;24805;55.852;37.644;2023-07-13T10:52:43;98422.44;;;16.76;63.21
39051;BME280;24805;55.852;37.644;2023-07-13T10:58:00;98425.81;;;16.55;64.39
39051;BME280;24805;55.852;37.644;2023-07-13T11:03:02;98434.44;;;16.29;65.12
39051;BME280;24805;55.852;37.644;2023-07-13T11:08:19;98423.44;;;16.42;64.92
39051;BME280;24805;55.852;37.644;2023-07-13T11:24:16;98410.94;;;16.47;63.72
39051;BME280;24805;55.852;37.644;2023-07-13T11:34:35;98410.13;;;16.47;62.53
39051;BME280;24805;55.852;37.644;2023-07-13T11:39:41;98437.03;;;16.69;62.69
39051;BME280;24805;55.852;37.644;2023-07-13T11:44:49;98443.69;;;16.66;63.72
39051;BME280;24805;55.852;37.644;2023-07-13T11:50:21;98429.44;;;16.77;63.88
39051;BME280;24805;55.852;37.644;2023-07-13T11:55:24;98443.31;;;16.63;64.63
39051;BME280;24805;55.852;37.644;2023-07-13T12:00:31;98445.78;;;16.81;64.59
39051;BME280;24805;55.852;37.644;2023-07-13T12:05:35;98445.66;;;16.71;64.98
39051;BME280;24805;55.852;37.644;2023-07-13T12:10:38;98438.28;;;16.78;65.17
39051;BME280;24805;55.852;37.644;2023-07-13T12:15:43;98425.03;;;16.88;65.04
39051;BME280;24805;55.852;37.644;2023-07-13T12:20:49;98440.13;;;16.94;65.28
39051;BME280;24805;55.852;37.644;2023-07-13T12:25:52;98441.56;;;17.02;65.61
39051;BME280;24805;55.852;37.644;2023-07-13T12:30:58;98432.06;;;17.11;65.38
39051;BME280;24805;55.852;37.644;2023-07-13T12:36:04;98431.59;;;16.97;66.28
39051;BME280;24805;55.852;37.644;2023-07-13T12:41:08;98433.44;;;16.80;67.21
39051;BME280;24805;55.852;37.644;2023-07-13T12:46:20;98422.75;;;16.80;67.17
39051;BME280;24805;55.852;37.644;2023-07-13T12:51:27;98426.31;;;16.69;67.77
39051;BME280;24805;55.852;37.644;2023-07-13T12:56:32;98410.91;;;16.76;66.93
39051;BME280;24805;55.852;37.644;2023-07-13T13:01:35;98420.50;;;16.72;66.78
39051;BME280;24805;55.852;37.644;2023-07-13T13:06:41;98424.22;;;16.71;67.05
39051;BME280;24805;55.852;37.644;2023-07-13T13:11:45;98422.34;;;16.71;66.90
39051;BME280;24805;55.852;37.644;2023-07-13T13:16:49;98410.16;;;16.80;66.92
39051;BME280;24805;55.852;37.644;2023-07-13T13:21:54;98412.03;;;16.80;66.84
39051;BME280;24805;55.852;37.644;2023-07-13T13:26:58;98416.50;;;16.74;66.82
39051;BME280;24805;55.852;37.644;2023-07-13T13:32:00;98413.03;;;16.74;65.85
39051;BME280;24805;55.852;37.644;2023-07-13T13:37:03;98413.25;;;16.72;66.47
39051;BME280;24805;55.852;37.644;2023-07-13T13:42:05;98409.22;;;16.70;66.50
39051;BME280;24805;55.852;37.644;2023-07-13T13:47:36;98408.88;;;16.83;65.60
39051;BME280;24805;55.852;37.644;2023-07-13T13:52:38;98392.78;;;16.49;66.16
39051;BME280;24805;55.852;37.644;2023-07-13T13:57:42;98404.06;;;16.51;66.53
39051;BME280;24805;55.852;37.644;2023-07-13T14:02:46;98411.84;;;16.53;66.00
39051;BME280;24805;55.852;37.644;2023-07-13T14:07:49;98421.09;;;16.45;65.51
39051;BME280;24805;55.852;37.644;2023-07-13T14:12:53;98382.88;;;16.33;66.46
39051;BME280;24805;55.852;37.644;2023-07-13T14:17:57;98389.25;;;16.15;66.44
39051;BME280;24805;55.852;37.644;2023-07-13T14:23:00;98403.38;;;16.28;66.58
39051;BME280;24805;55.852;37.644;2023-07-13T14:28:25;98399.28;;;16.53;65.95
39051;BME280;24805;55.852;37.644;2023-07-13T14:33:27;98395.78;;;16.36;66.49
39051;BME280;24805;55.852;37.644;2023-07-13T14:38:29;98393.97;;;16.42;66.39
39051;BME280;24805;55.852;37.644;2023-07-13T14:43:31;98393.84;;;16.48;66.38
39051;BME280;24805;55.852;37.644;2023-07-13T14:48:34;98401.63;;;16.50;66.17
39051;BME280;24805;55.852;37.644;2023-07-13T14:53:36;98404.63;;;16.53;65.68
39051;BME280;24805;55.852;37.644;2023-07-13T14:58:40;98403.09;;;16.58;65.99
39051;BME280;24805;55.852;37.644;2023-07-13T15:03:45;98395.38;;;16.61;65.46
39051;BME280;24805;55.852;37.644;2023-07-13T15:08:48;98398.28;;;16.60;65.71
39051;BME280;24805;55.852;37.644;2023-07-13T15:13:50;98406.88;;;16.62;65.46
39051;BME280;24805;55.852;37.644;2023-07-13T15:18:52;98404.56;;;16.65;65.08
39051;BME280;24805;55.852;37.644;2023-07-13T15:23:55;98391.28;;;16.70;64.78
39051;BME280;24805;55.852;37.644;2023-07-13T15:28:57;98364.00;;;16.57;64.65
39051;BME280;24805;55.852;37.644;2023-07-13T15:33:59;98394.28;;;16.74;64.47
39051;BME280;24805;55.852;37.644;2023-07-13T15:39:02;98383.56;;;16.74;65.06
39051;BME280;24805;55.852;37.644;2023-07-13T15:44:34;98379.25;;;16.90;65.10
39051;BME280;24805;55.852;37.644;2023-07-13T15:49:35;98377.97;;;16.75;64.87
39051;BME280;24805;55.852;37.644;2023-07-13T15:54:38;98382.28;;;16.76;65.23
39051;BME280;24805;55.852;37.644;2023-07-13T15:59:41;98366.72;;;16.62;65.26
39051;BME280;24805;55.852;37.644;2023-07-13T16:04:44;98351.66;;;16.56;65.32
39051;BME280;24805;55.852;37.644;2023-07-13T16:09:47;98382.19;;;16.71;65.13
39051;BME280;24805;55.852;37.644;2023-07-13T16:14:52;98368.59;;;16.61;65.49
39051;BME280;24805;55.852;37.644;2023-07-13T16:19:54;98379.53;;;16.60;65.94
39051;BME280;24805;55.852;37.644;2023-07-13T16:24:58;98373.56;;;16.52;66.36
39051;BME280;24805;55.852;37.644;2023-07-13T16:30:12;98361.59;;;16.60;66.13
39051;BME280;24805;55.852;37.644;2023-07-13T16:35:14;98375.56;;;16.45;66.29
39051;BME280;24805;55.852;37.644;2023-07-13T16:40:26;98359.28;;;16.47;65.75
39051;BME280;24805;55.852;37.644;2023-07-13T16:45:30;98355.94;;;16.40;66.77
39051;BME280;24805;55.852;37.644;2023-07-13T16:50:38;98366.25;;;16.48;67.04
39051;BME280;24805;55.852;37.644;2023-07-13T16:55:42;98342.97;;;16.32;66.95
39051;BME280;24805;55.852;37.644;2023-07-13T17:00:47;98359.19;;;16.42;67.20
39051;BME280;24805;55.852;37.644;2023-07-13T17:05:51;98353.78;;;16.37;67.09
39051;BME280;24805;55.852;37.644;2023-07-13T17:10:56;98361.56;;;16.38;66.93
39051;BME280;24805;55.852;37.644;2023-07-13T17:15:59;98352.19;;;16.24;67.19
39051;BME280;24805;55.852;37.644;2023-07-13T17:21:03;98355.44;;;16.26;67.86
39051;BME280;24805;55.852;37.644;2023-07-13T17:26:06;98359.50;;;16.29;67.67
39051;BME280;24805;55.852;37.644;2023-07-13T17:31:12;98363.91;;;16.35;67.59
39051;BME280;24805;55.852;37.644;2023-07-13T17:36:20;98362.34;;;16.22;67.97
39051;BME280;24805;55.852;37.644;2023-07-13T17:41:22;98354.16;;;16.12;68.01
39051;BME280;24805;55.852;37.644;2023-07-13T17:46:30;98342.72;;;16.16;68.41
39051;BME280;24805;55.852;37.644;2023-07-13T17:51:33;98367.22;;;16.25;68.24
39051;BME280;24805;55.852;37.644;2023-07-13T17:56:37;98378.47;;;16.27;68.66
39051;BME280;24805;55.852;37.644;2023-07-13T18:01:43;98367.91;;;16.20;68.45
39051;BME280;24805;55.852;37.644;2023-07-13T18:06:46;98385.88;;;16.37;68.81
39051;BME280;24805;55.852;37.644;2023-07-13T18:11:54;98392.59;;;16.39;68.96
39051;BME280;24805;55.852;37.644;2023-07-13T18:16:58;98403.06;;;16.41;68.84
39051;BME280;24805;55.852;37.644;2023-07-13T18:22:09;98410.31;;;16.57;68.98
39051;BME280;24805;55.852;37.644;2023-07-13T18:27:12;98396.75;;;16.47;68.76
39051;BME280;24805;55.852;37.644;2023-07-13T18:32:19;98409.81;;;16.60;68.95
39051;BME280;24805;55.852;37.644;2023-07-13T18:37:23;98416.31;;;16.47;69.02
39051;BME280;24805;55.852;37.644;2023-07-13T18:42:26;98414.34;;;16.43;69.36
39051;BME280;24805;55.852;37.644;2023-07-13T18:47:28;98414.28;;;16.38;69.17
39051;BME280;24805;55.852;37.644;2023-07-13T18:52:36;98397.56;;;16.31;68.66
39051;BME280;24805;55.852;37.644;2023-07-13T18:57:39;98395.03;;;16.24;68.76
39051;BME280;24805;55.852;37.644;2023-07-13T19:02:42;98400.03;;;16.20;69.04
39051;BME280;24805;55.852;37.644;2023-07-13T19:07:45;98403.53;;;16.21;69.44
39051;BME280;24805;55.852;37.644;2023-07-13T19:12:52;98389.53;;;16.31;69.03
39051;BME280;24805;55.852;37.644;2023-07-13T19:18:05;98393.50;;;16.28;69.24
39051;BME280;24805;55.852;37.644;2023-07-13T19:23:37;98402.50;;;16.39;68.21
39051;BME280;24805;55.852;37.644;2023-07-13T19:28:42;98400.84;;;16.21;69.46
39051;BME280;24805;55.852;37.644;2023-07-13T19:33:45;98396.00;;;16.18;69.20
39051;BME280;24805;55.852;37.644;2023-07-13T19:38:49;98403.03;;;16.24;69.33
39051;BME280;24805;55.852;37.644;2023-07-13T19:43:52;98404.34;;;16.22;69.09
39051;BME280;24805;55.852;37.644;2023-07-13T19:48:54;98410.84;;;16.26;68.60
39051;BME280;24805;55.852;37.644;2023-07-13T19:54:02;98419.13;;;16.41;68.54
39051;BME280;24805;55.852;37.644;2023-07-13T19:59:29;98421.28;;;16.56;67.83
39051;BME280;24805;55.852;37.644;2023-07-13T20:04:32;98421.06;;;16.29;68.36
39051;BME280;24805;55.852;37.644;2023-07-13T20:09:35;98432.00;;;16.27;68.21
39051;BME280;24805;55.852;37.644;2023-07-13T20:14:45;98436.78;;;16.25;68.21
39051;BME280;24805;55.852;37.644;2023-07-13T20:19:48;98426.56;;;16.22;68.26
39051;BME280;24805;55.852;37.644;2023-07-13T20:24:50;98432.97;;;16.21;68.28
39051;BME280;24805;55.852;37.644;2023-07-13T20:29:52;98431.34;;;16.20;68.18
39051;BME280;24805;55.852;37.644;2023-07-13T20:34:54;98426.78;;;16.20;68.43
39051;BME280;24805;55.852;37.644;2023-07-13T20:40:00;98429.56;;;16.26;68.04
39051;BME280;24805;55.852;37.644;2023-07-13T20:45:05;98428.66;;;16.20;67.99
39051;BME280;24805;55.852;37.644;2023-07-13T20:50:25;98436.50;;;16.38;68.06
39051;BME280;24805;55.852;37.644;2023-07-13T20:55:30;98443.19;;;16.24;67.80
39051;BME280;24805;55.852;37.644;2023-07-13T21:00:32;98435.06;;;16.19;67.87
39051;BME280;24805;55.852;37.644;2023-07-13T21:05:37;98445.28;;;16.22;68.27
39051;BME280;24805;55.852;37.644;2023-07-13T21:10:40;98427.19;;;16.12;68.09
39051;BME280;24805;55.852;37.644;2023-07-13T21:15:45;98426.31;;;16.24;67.98
39051;BME280;24805;55.852;37.644;2023-07-13T21:20:50;98426.78;;;16.20;67.95
39051;BME280;24805;55.852;37.644;2023-07-13T21:25:52;98423.47;;;16.13;67.91
39051;BME280;24805;55.852;37.644;2023-07-13T21:31:00;98423.41;;;16.25;67.52
39051;BME280;24805;55.852;37.644;2023-07-13T21:36:04;98415.00;;;16.05;67.61
39051;BME280;24805;55.852;37.644;2023-07-13T21:46:27;98430.22;;;16.16;67.52
39051;BME280;24805;55.852;37.644;2023-07-13T21:51:31;98431.88;;;16.05;68.04
39051;BME280;24805;55.852;37.644;2023-07-13T21:56:35;98425.72;;;16.05;67.76
39051;BME280;24805;55.852;37.644;2023-07-13T22:01:37;98419.94;;;15.96;67.99
39051;BME280;24805;55.852;37.644;2023-07-13T22:06:40;98405.19;;;15.94;68.07
39051;BME280;24805;55.852;37.644;2023-07-13T22:11:42;98420.00;;;16.01;68.34
39051;BME280;24805;55.852;37.644;2023-07-13T22:16:45;98410.28;;;15.95;68.03
39051;BME280;24805;55.852;37.644;2023-07-13T22:21:47;98418.25;;;16.07;67.97
39051;BME280;24805;55.852;37.644;2023-07-13T22:26:50;98425.81;;;16.10;68.05
39051;BME280;24805;55.852;37.644;2023-07-13T22:31:52;98420.13;;;16.06;68.00
39051;BME280;24805;55.852;37.644;2023-07-13T22:36:55;98425.94;;;16.03;68.55
39051;BME280;24805;55.852;37.644;2023-07-13T22:41:58;98422.94;;;16.00;68.41
39051;BME280;24805;55.852;37.644;2023-07-13T22:47:00;98416.22;;;15.97;68.96
39051;BME280;24805;55.852;37.644;2023-07-13T22:52:03;98419.44;;;15.99;68.68
39051;BME280;24805;55.852;37.644;2023-07-13T22:57:06;98410.06;;;15.97;68.35
39051;BME280;24805;55.852;37.644;2023-07-13T23:02:15;98420.47;;;16.10;68.83
39051;BME280;24805;55.852;37.644;2023-07-13T23:07:19;98400.78;;;15.88;68.71
39051;BME280;24805;55.852;37.644;2023-07-13T23:12:23;98409.81;;;15.98;68.73
39051;BME280;24805;55.852;37.644;2023-07-13T23:17:29;98397.56;;;16.02;68.35
39051;BME280;24805;55.852;37.644;2023-07-13T23:22:32;98404.31;;;16.05;68.31
39051;BME280;24805;55.852;37.644;2023-07-13T23:27:34;98405.47;;;16.09;68.51
39051;BME280;24805;55.852;37.644;2023-07-13T23:32:36;98406.84;;;16.11;68.08
39051;BME280;24805;55.852;37.644;2023-07-13T23:37:39;98403.13;;;16.12;68.30
39051;BME280;24805;55.852;37.644;2023-07-13T23:42:42;98416.03;;;16.15;68.72
39051;BME280;24805;55.852;37.644;2023-07-13T23:47:46;98407.25;;;16.20;68.44
39051;BME280;24805;55.852;37.644;2023-07-13T23:52:50;98402.94;;;16.19;67.99
39051;BME280;24805;55.852;37.644;2023-07-13T23:57:55;98397.88;;;16.17;67.68
